sensor_id;sensor_type;location;lat;lon;timestamp;temperature;humidity
15900;DHT22;8048;50.644;6.184;2023-05-27T00:00:58;8.90;98.70
15900;DHT22;8048;50.644;6.184;2023-05-27T00:03:23;8.80;98.70
15900;DHT22;8048;50.644;6.184;2023-05-27T00:05:49;8.80;98.80
15900;DHT22;8048;50.644;6.184;2023-05-27T00:08:15;8.70;98.70
15900;DHT22;8048;50.644;6.184;2023-05-27T00:10:40;8.70;99.00
15900;DHT22;8048;50.644;6.184;2023-05-27T00:13:06;8.60;98.80
15900;DHT22;8048;50.644;6.184;2023-05-27T00:15:32;8.60;98.80
15900;DHT22;8048;50.644;6.184;2023-05-27T00:17:58;8.60;99.00
15900;DHT22;8048;50.644;6.184;2023-05-27T00:20:25;8.40;99.00
15900;DHT22;8048;50.644;6.184;2023-05-27T00:22:51;8.40;99.40
15900;DHT22;8048;50.644;6.184;2023-05-27T00:25:17;8.40;98.70
15900;DHT22;8048;50.644;6.184;2023-05-27T00:27:46;8.20;98.60
15900;DHT22;8048;50.644;6.184;2023-05-27T00:30:12;8.20;99.00
15900;DHT22;8048;50.644;6.184;2023-05-27T00:32:38;8.00;99.20
15900;DHT22;8048;50.644;6.184;2023-05-27T00:35:04;7.90;99.70
15900;DHT22;8048;50.644;6.184;2023-05-27T00:37:29;7.80;99.90
15900;DHT22;8048;50.644;6.184;2023-05-27T00:39:55;7.80;99.90
15900;DHT22;8048;50.644;6.184;2023-05-27T00:42:21;7.80;99.90
15900;DHT22;8048;50.644;6.184;2023-05-27T00:44:46;7.70;99.90
15900;DHT22;8048;50.644;6.184;2023-05-27T00:47:12;7.70;99.90
15900;DHT22;8048;50.644;6.184;2023-05-27T00:49:38;7.70;99.90
15900;DHT22;8048;50.644;6.184;2023-05-27T00:52:04;7.60;99.90
15900;DHT22;8048;50.644;6.184;2023-05-27T00:54:30;7.60;99.90
15900;DHT22;8048;50.644;6.184;2023-05-27T00:56:57;7.60;99.90
15900;DHT22;8048;50.644;6.184;2023-05-27T00:59:23;7.60;99.90
15900;DHT22;8048;50.644;6.184;2023-05-27T01:01:48;7.50;99.90
15900;DHT22;8048;50.644;6.184;2023-05-27T01:04:15;7.50;99.90
15900;DHT22;8048;50.644;6.184;2023-05-27T01:15:05;7.30;99.90
15900;DHT22;8048;50.644;6.184;2023-05-27T01:17:32;7.30;99.90
15900;DHT22;8048;50.644;6.184;2023-05-27T01:19:59;7.30;99.90
15900;DHT22;8048;50.644;6.184;2023-05-27T01:22:27;7.30;99.90
15900;DHT22;8048;50.644;6.184;2023-05-27T01:24:53;7.30;99.90
15900;DHT22;8048;50.644;6.184;2023-05-27T01:27:19;7.30;99.90
15900;DHT22;8048;50.644;6.184;2023-05-27T01:29:46;7.20;99.90
15900;DHT22;8048;50.644;6.184;2023-05-27T01:32:21;7.20;99.90
15900;DHT22;8048;50.644;6.184;2023-05-27T01:35:09;7.20;99.90
15900;DHT22;8048;50.644;6.184;2023-05-27T01:37:41;7.20;99.90
15900;DHT22;8048;50.644;6.184;2023-05-27T01:40:08;7.30;99.90
15900;DHT22;8048;50.644;6.184;2023-05-27T01:42:39;7.30;99.90
15900;DHT22;8048;50.644;6.184;2023-05-27T01:45:07;7.20;99.90
15900;DHT22;8048;50.644;6.184;2023-05-27T01:47:33;7.20;99.90
15900;DHT22;8048;50.644;6.184;2023-05-27T01:49:59;7.20;99.90
15900;DHT22;8048;50.644;6.184;2023-05-27T01:52:25;7.20;99.90
15900;DHT22;8048;50.644;6.184;2023-05-27T01:54:51;7.10;99.90
15900;DHT22;8048;50.644;6.184;2023-05-27T01:57:17;7.10;99.90
15900;DHT22;8048;50.644;6.184;2023-05-27T01:59:43;7.10;99.90
15900;DHT22;8048;50.644;6.184;2023-05-27T02:02:08;7.10;99.90
15900;DHT22;8048;50.644;6.184;2023-05-27T02:04:34;7.00;99.90
15900;DHT22;8048;50.644;6.184;2023-05-27T02:06:59;7.00;99.90
15900;DHT22;8048;50.644;6.184;2023-05-27T02:09:25;7.00;99.90
15900;DHT22;8048;50.644;6.184;2023-05-27T02:11:51;7.00;99.90
15900;DHT22;8048;50.644;6.184;2023-05-27T02:14:16;6.90;99.90
15900;DHT22;8048;50.644;6.184;2023-05-27T02:16:42;7.00;99.90
15900;DHT22;8048;50.644;6.184;2023-05-27T02:19:09;7.00;99.90
15900;DHT22;8048;50.644;6.184;2023-05-27T02:21:34;6.80;99.90
15900;DHT22;8048;50.644;6.184;2023-05-27T02:24:01;6.80;99.90
15900;DHT22;8048;50.644;6.184;2023-05-27T02:26:27;6.70;99.90
15900;DHT22;8048;50.644;6.184;2023-05-27T02:28:52;6.70;99.90
15900;DHT22;8048;50.644;6.184;2023-05-27T02:31:18;6.60;99.90
15900;DHT22;8048;50.644;6.184;2023-05-27T02:33:44;6.60;99.90
15900;DHT22;8048;50.644;6.184;2023-05-27T02:36:10;6.50;99.90
15900;DHT22;8048;50.644;6.184;2023-05-27T02:38:36;6.40;99.90
15900;DHT22;8048;50.644;6.184;2023-05-27T02:41:02;6.50;99.90
15900;DHT22;8048;50.644;6.184;2023-05-27T02:43:28;6.40;99.90
15900;DHT22;8048;50.644;6.184;2023-05-27T02:45:53;6.30;99.90
15900;DHT22;8048;50.644;6.184;2023-05-27T02:48:19;6.30;99.90
15900;DHT22;8048;50.644;6.184;2023-05-27T02:50:44;6.30;99.90
15900;DHT22;8048;50.644;6.184;2023-05-27T02:53:10;6.30;99.90
15900;DHT22;8048;50.644;6.184;2023-05-27T02:55:35;6.20;99.90
15900;DHT22;8048;50.644;6.184;2023-05-27T02:58:01;6.20;99.90
15900;DHT22;8048;50.644;6.184;2023-05-27T03:00:28;6.10;99.90
15900;DHT22;8048;50.644;6.184;2023-05-27T03:02:54;6.10;99.90
15900;DHT22;8048;50.644;6.184;2023-05-27T03:05:20;6.10;99.90
15900;DHT22;8048;50.644;6.184;2023-05-27T03:07:45;6.00;99.90
15900;DHT22;8048;50.644;6.184;2023-05-27T03:10:11;6.00;99.90
15900;DHT22;8048;50.644;6.184;2023-05-27T03:12:37;6.00;99.90
15900;DHT22;8048;50.644;6.184;2023-05-27T03:15:02;6.00;99.90
15900;DHT22;8048;50.644;6.184;2023-05-27T03:17:28;6.00;99.90
15900;DHT22;8048;50.644;6.184;2023-05-27T03:19:53;5.90;99.90
15900;DHT22;8048;50.644;6.184;2023-05-27T03:22:19;5.90;99.90
15900;DHT22;8048;50.644;6.184;2023-05-27T03:24:45;5.90;99.90
15900;DHT22;8048;50.644;6.184;2023-05-27T03:27:10;5.90;99.90
15900;DHT22;8048;50.644;6.184;2023-05-27T03:29:36;5.80;99.90
15900;DHT22;8048;50.644;6.184;2023-05-27T03:32:02;5.80;99.90
15900;DHT22;8048;50.644;6.184;2023-05-27T03:34:27;5.70;99.90
15900;DHT22;8048;50.644;6.184;2023-05-27T03:36:53;5.70;99.90
15900;DHT22;8048;50.644;6.184;2023-05-27T03:39:18;5.60;99.90
15900;DHT22;8048;50.644;6.184;2023-05-27T03:41:44;5.60;99.90
15900;DHT22;8048;50.644;6.184;2023-05-27T03:44:10;5.60;99.90
15900;DHT22;8048;50.644;6.184;2023-05-27T03:46:35;5.60;99.90
15900;DHT22;8048;50.644;6.184;2023-05-27T03:49:01;5.60;99.90
15900;DHT22;8048;50.644;6.184;2023-05-27T03:51:27;5.60;99.90
15900;DHT22;8048;50.644;6.184;2023-05-27T03:53:53;5.60;99.90
15900;DHT22;8048;50.644;6.184;2023-05-27T03:56:18;5.60;99.90
15900;DHT22;8048;50.644;6.184;2023-05-27T03:58:44;5.60;99.90
15900;DHT22;8048;50.644;6.184;2023-05-27T04:01:10;5.60;99.90
15900;DHT22;8048;50.644;6.184;2023-05-27T04:03:36;5.60;99.90
15900;DHT22;8048;50.644;6.184;2023-05-27T04:06:02;5.60;99.90
15900;DHT22;8048;50.644;6.184;2023-05-27T04:08:28;5.60;99.90
15900;DHT22;8048;50.644;6.184;2023-05-27T04:10:55;5.60;99.90
15900;DHT22;8048;50.644;6.184;2023-05-27T04:13:20;5.60;99.90
15900;DHT22;8048;50.644;6.184;2023-05-27T04:15:46;5.60;99.90
15900;DHT22;8048;50.644;6.184;2023-05-27T04:18:12;5.60;99.90
15900;DHT22;8048;50.644;6.184;2023-05-27T04:20:39;5.70;99.90
15900;DHT22;8048;50.644;6.184;2023-05-27T04:23:06;5.70;99.90
15900;DHT22;8048;50.644;6.184;2023-05-27T04:25:32;5.70;99.90
15900;DHT22;8048;50.644;6.184;2023-05-27T04:27:57;5.80;99.90
15900;DHT22;8048;50.644;6.184;2023-05-27T04:30:23;5.90;99.90
15900;DHT22;8048;50.644;6.184;2023-05-27T04:32:49;5.90;99.90
15900;DHT22;8048;50.644;6.184;2023-05-27T04:35:14;5.90;99.90
15900;DHT22;8048;50.644;6.184;2023-05-27T04:37:40;5.90;99.90
15900;DHT22;8048;50.644;6.184;2023-05-27T04:40:10;6.00;99.90
15900;DHT22;8048;50.644;6.184;2023-05-27T04:42:36;6.00;99.90
15900;DHT22;8048;50.644;6.184;2023-05-27T04:45:07;6.10;99.90
15900;DHT22;8048;50.644;6.184;2023-05-27T04:47:33;6.10;99.90
15900;DHT22;8048;50.644;6.184;2023-05-27T04:50:05;6.30;99.90
15900;DHT22;8048;50.644;6.184;2023-05-27T04:52:31;6.30;99.90
15900;DHT22;8048;50.644;6.184;2023-05-27T04:55:03;6.40;99.90
15900;DHT22;8048;50.644;6.184;2023-05-27T04:57:29;6.50;99.90
15900;DHT22;8048;50.644;6.184;2023-05-27T04:59:54;6.60;99.90
15900;DHT22;8048;50.644;6.184;2023-05-27T05:02:30;6.60;99.90
15900;DHT22;8048;50.644;6.184;2023-05-27T05:05:02;6.70;99.90
15900;DHT22;8048;50.644;6.184;2023-05-27T05:07:28;6.80;99.90
15900;DHT22;8048;50.644;6.184;2023-05-27T05:09:53;7.00;99.90
15900;DHT22;8048;50.644;6.184;2023-05-27T05:12:19;7.10;99.90
15900;DHT22;8048;50.644;6.184;2023-05-27T05:14:44;7.20;99.90
15900;DHT22;8048;50.644;6.184;2023-05-27T05:17:10;7.30;99.90
15900;DHT22;8048;50.644;6.184;2023-05-27T05:19:36;7.40;99.90
15900;DHT22;8048;50.644;6.184;2023-05-27T05:22:01;7.50;99.90
15900;DHT22;8048;50.644;6.184;2023-05-27T05:24:27;7.50;99.90
15900;DHT22;8048;50.644;6.184;2023-05-27T05:26:52;7.70;99.90
15900;DHT22;8048;50.644;6.184;2023-05-27T05:29:18;7.80;99.90
15900;DHT22;8048;50.644;6.184;2023-05-27T05:31:43;7.80;99.90
15900;DHT22;8048;50.644;6.184;2023-05-27T05:34:10;7.90;99.90
15900;DHT22;8048;50.644;6.184;2023-05-27T05:36:36;8.00;99.90
15900;DHT22;8048;50.644;6.184;2023-05-27T05:39:02;8.10;99.90
15900;DHT22;8048;50.644;6.184;2023-05-27T05:41:28;8.20;99.90
15900;DHT22;8048;50.644;6.184;2023-05-27T05:43:54;8.30;99.90
15900;DHT22;8048;50.644;6.184;2023-05-27T05:46:20;8.30;99.90
15900;DHT22;8048;50.644;6.184;2023-05-27T05:48:45;8.40;99.90
15900;DHT22;8048;50.644;6.184;2023-05-27T05:51:11;8.60;99.90
15900;DHT22;8048;50.644;6.184;2023-05-27T05:53:36;8.70;99.90
15900;DHT22;8048;50.644;6.184;2023-05-27T05:56:02;8.80;99.90
15900;DHT22;8048;50.644;6.184;2023-05-27T05:58:27;9.00;99.90
15900;DHT22;8048;50.644;6.184;2023-05-27T06:00:53;9.20;99.90
15900;DHT22;8048;50.644;6.184;2023-05-27T06:03:19;9.40;99.90
15900;DHT22;8048;50.644;6.184;2023-05-27T06:05:45;9.50;99.90
15900;DHT22;8048;50.644;6.184;2023-05-27T06:08:11;9.60;99.90
15900;DHT22;8048;50.644;6.184;2023-05-27T06:10:36;9.70;99.90
15900;DHT22;8048;50.644;6.184;2023-05-27T06:13:02;9.90;99.90
15900;DHT22;8048;50.644;6.184;2023-05-27T06:15:27;10.10;99.90
15900;DHT22;8048;50.644;6.184;2023-05-27T06:17:53;10.20;99.90
15900;DHT22;8048;50.644;6.184;2023-05-27T06:20:19;10.20;99.50
15900;DHT22;8048;50.644;6.184;2023-05-27T06:22:45;10.40;99.90
15900;DHT22;8048;50.644;6.184;2023-05-27T06:25:13;10.60;99.80
15900;DHT22;8048;50.644;6.184;2023-05-27T06:27:38;10.70;99.50
15900;DHT22;8048;50.644;6.184;2023-05-27T06:30:04;10.70;98.70
15900;DHT22;8048;50.644;6.184;2023-05-27T06:32:30;10.80;98.50
15900;DHT22;8048;50.644;6.184;2023-05-27T06:34:55;10.90;98.10
15900;DHT22;8048;50.644;6.184;2023-05-27T06:37:21;11.10;98.50
15900;DHT22;8048;50.644;6.184;2023-05-27T06:39:46;11.10;98.30
15900;DHT22;8048;50.644;6.184;2023-05-27T06:42:13;11.20;98.30
15900;DHT22;8048;50.644;6.184;2023-05-27T06:44:39;11.30;97.60
15900;DHT22;8048;50.644;6.184;2023-05-27T06:47:04;11.40;98.10
15900;DHT22;8048;50.644;6.184;2023-05-27T06:49:30;11.50;97.80
15900;DHT22;8048;50.644;6.184;2023-05-27T06:51:55;11.60;97.20
15900;DHT22;8048;50.644;6.184;2023-05-27T06:54:21;11.70;96.80
15900;DHT22;8048;50.644;6.184;2023-05-27T06:56:47;11.80;97.10
15900;DHT22;8048;50.644;6.184;2023-05-27T06:59:12;12.00;97.10
15900;DHT22;8048;50.644;6.184;2023-05-27T07:01:38;12.00;96.30
15900;DHT22;8048;50.644;6.184;2023-05-27T07:04:03;12.20;96.10
15900;DHT22;8048;50.644;6.184;2023-05-27T07:06:29;12.30;95.50
15900;DHT22;8048;50.644;6.184;2023-05-27T07:08:55;12.40;95.50
15900;DHT22;8048;50.644;6.184;2023-05-27T07:11:20;12.50;95.50
15900;DHT22;8048;50.644;6.184;2023-05-27T07:13:47;12.60;95.30
15900;DHT22;8048;50.644;6.184;2023-05-27T07:16:12;12.60;94.10
15900;DHT22;8048;50.644;6.184;2023-05-27T07:18:38;12.80;94.70
15900;DHT22;8048;50.644;6.184;2023-05-27T07:21:03;12.90;94.30
15900;DHT22;8048;50.644;6.184;2023-05-27T07:23:29;13.00;93.90
15900;DHT22;8048;50.644;6.184;2023-05-27T07:25:54;13.10;93.60
15900;DHT22;8048;50.644;6.184;2023-05-27T07:28:20;13.20;93.00
15900;DHT22;8048;50.644;6.184;2023-05-27T07:30:46;13.20;92.90
15900;DHT22;8048;50.644;6.184;2023-05-27T07:33:11;13.40;92.70
15900;DHT22;8048;50.644;6.184;2023-05-27T07:35:37;13.50;92.50
15900;DHT22;8048;50.644;6.184;2023-05-27T07:38:02;13.60;91.70
15900;DHT22;8048;50.644;6.184;2023-05-27T07:40:28;13.70;91.90
15900;DHT22;8048;50.644;6.184;2023-05-27T07:42:53;13.80;92.00
15900;DHT22;8048;50.644;6.184;2023-05-27T07:45:19;13.90;91.90
15900;DHT22;8048;50.644;6.184;2023-05-27T07:47:44;14.00;91.50
15900;DHT22;8048;50.644;6.184;2023-05-27T07:50:11;14.10;92.00
15900;DHT22;8048;50.644;6.184;2023-05-27T07:52:38;14.30;91.40
15900;DHT22;8048;50.644;6.184;2023-05-27T07:55:04;14.50;91.10
15900;DHT22;8048;50.644;6.184;2023-05-27T07:57:30;14.60;91.20
15900;DHT22;8048;50.644;6.184;2023-05-27T07:59:55;14.70;91.60
15900;DHT22;8048;50.644;6.184;2023-05-27T08:02:21;14.90;92.20
15900;DHT22;8048;50.644;6.184;2023-05-27T08:04:47;15.10;91.10
15900;DHT22;8048;50.644;6.184;2023-05-27T08:07:14;15.20;90.90
15900;DHT22;8048;50.644;6.184;2023-05-27T08:09:39;15.40;90.80
15900;DHT22;8048;50.644;6.184;2023-05-27T08:12:05;15.60;90.50
15900;DHT22;8048;50.644;6.184;2023-05-27T08:14:32;15.80;90.00
15900;DHT22;8048;50.644;6.184;2023-05-27T08:16:57;16.00;89.20
15900;DHT22;8048;50.644;6.184;2023-05-27T08:19:23;16.20;89.20
15900;DHT22;8048;50.644;6.184;2023-05-27T08:21:48;16.30;88.20
15900;DHT22;8048;50.644;6.184;2023-05-27T08:24:14;16.50;87.10
15900;DHT22;8048;50.644;6.184;2023-05-27T08:26:40;16.70;86.90
15900;DHT22;8048;50.644;6.184;2023-05-27T08:29:05;16.90;85.40
15900;DHT22;8048;50.644;6.184;2023-05-27T08:31:31;17.10;84.70
15900;DHT22;8048;50.644;6.184;2023-05-27T08:33:57;17.10;82.00
15900;DHT22;8048;50.644;6.184;2023-05-27T08:36:22;17.20;83.10
15900;DHT22;8048;50.644;6.184;2023-05-27T08:38:48;17.30;82.70
15900;DHT22;8048;50.644;6.184;2023-05-27T08:41:14;17.40;78.60
15900;DHT22;8048;50.644;6.184;2023-05-27T08:43:41;17.50;80.80
15900;DHT22;8048;50.644;6.184;2023-05-27T08:46:07;17.50;79.10
15900;DHT22;8048;50.644;6.184;2023-05-27T08:48:33;17.60;81.30
15900;DHT22;8048;50.644;6.184;2023-05-27T08:50:58;17.90;80.80
15900;DHT22;8048;50.644;6.184;2023-05-27T08:53:26;18.10;77.20
15900;DHT22;8048;50.644;6.184;2023-05-27T08:55:53;18.20;76.70
15900;DHT22;8048;50.644;6.184;2023-05-27T08:58:20;18.30;77.90
15900;DHT22;8048;50.644;6.184;2023-05-27T09:00:46;18.40;75.40
15900;DHT22;8048;50.644;6.184;2023-05-27T09:03:12;18.60;76.30
15900;DHT22;8048;50.644;6.184;2023-05-27T09:05:38;18.80;78.90
15900;DHT22;8048;50.644;6.184;2023-05-27T09:08:03;19.00;75.60
15900;DHT22;8048;50.644;6.184;2023-05-27T09:10:39;19.00;73.10
15900;DHT22;8048;50.644;6.184;2023-05-27T09:13:05;19.20;75.10
15900;DHT22;8048;50.644;6.184;2023-05-27T09:15:31;19.60;75.50
15900;DHT22;8048;50.644;6.184;2023-05-27T09:17:57;19.80;73.70
15900;DHT22;8048;50.644;6.184;2023-05-27T09:20:26;19.90;72.70
15900;DHT22;8048;50.644;6.184;2023-05-27T09:22:59;19.90;69.60
15900;DHT22;8048;50.644;6.184;2023-05-27T09:25:27;19.90;72.30
15900;DHT22;8048;50.644;6.184;2023-05-27T09:27:53;19.90;69.00
15900;DHT22;8048;50.644;6.184;2023-05-27T09:30:20;20.00;71.50
15900;DHT22;8048;50.644;6.184;2023-05-27T09:32:46;20.00;65.30
15900;DHT22;8048;50.644;6.184;2023-05-27T09:35:12;19.90;66.20
15900;DHT22;8048;50.644;6.184;2023-05-27T09:37:38;20.00;68.60
15900;DHT22;8048;50.644;6.184;2023-05-27T09:40:09;20.10;68.40
15900;DHT22;8048;50.644;6.184;2023-05-27T09:42:44;20.20;67.50
15900;DHT22;8048;50.644;6.184;2023-05-27T09:45:14;20.40;64.90
15900;DHT22;8048;50.644;6.184;2023-05-27T09:47:44;20.40;65.50
15900;DHT22;8048;50.644;6.184;2023-05-27T09:50:12;20.70;67.00
15900;DHT22;8048;50.644;6.184;2023-05-27T09:52:40;21.00;65.20
15900;DHT22;8048;50.644;6.184;2023-05-27T09:55:11;21.40;68.20
15900;DHT22;8048;50.644;6.184;2023-05-27T09:57:38;22.00;66.10
15900;DHT22;8048;50.644;6.184;2023-05-27T10:00:07;21.80;59.40
15900;DHT22;8048;50.644;6.184;2023-05-27T10:02:50;21.90;58.10
15900;DHT22;8048;50.644;6.184;2023-05-27T10:05:17;22.00;60.80
15900;DHT22;8048;50.644;6.184;2023-05-27T10:07:45;22.20;61.50
15900;DHT22;8048;50.644;6.184;2023-05-27T10:10:18;22.30;57.90
15900;DHT22;8048;50.644;6.184;2023-05-27T10:12:45;22.30;60.00
15900;DHT22;8048;50.644;6.184;2023-05-27T10:15:32;22.30;60.00
15900;DHT22;8048;50.644;6.184;2023-05-27T10:20:30;22.20;57.10
15900;DHT22;8048;50.644;6.184;2023-05-27T10:23:40;22.20;57.20
15900;DHT22;8048;50.644;6.184;2023-05-27T10:25:50;22.30;59.60
15900;DHT22;8048;50.644;6.184;2023-05-27T10:28:28;22.40;59.40
15900;DHT22;8048;50.644;6.184;2023-05-27T10:31:06;22.70;57.20
15900;DHT22;8048;50.644;6.184;2023-05-27T10:33:37;23.00;58.50
15900;DHT22;8048;50.644;6.184;2023-05-27T10:36:06;23.30;59.10
15900;DHT22;8048;50.644;6.184;2023-05-27T10:38:32;23.50;57.80
15900;DHT22;8048;50.644;6.184;2023-05-27T10:41:02;23.90;57.50
15900;DHT22;8048;50.644;6.184;2023-05-27T10:43:29;24.10;57.20
15900;DHT22;8048;50.644;6.184;2023-05-27T10:46:08;24.40;57.30
15900;DHT22;8048;50.644;6.184;2023-05-27T10:48:35;24.80;58.20
15900;DHT22;8048;50.644;6.184;2023-05-27T10:51:02;25.00;58.70
15900;DHT22;8048;50.644;6.184;2023-05-27T10:53:28;25.20;57.30
15900;DHT22;8048;50.644;6.184;2023-05-27T10:55:58;25.50;58.00
15900;DHT22;8048;50.644;6.184;2023-05-27T10:58:25;25.70;56.80
15900;DHT22;8048;50.644;6.184;2023-05-27T11:00:52;25.90;57.60
15900;DHT22;8048;50.644;6.184;2023-05-27T11:05:43;26.50;58.00
15900;DHT22;8048;50.644;6.184;2023-05-27T11:08:12;26.40;55.30
15900;DHT22;8048;50.644;6.184;2023-05-27T11:10:40;26.50;57.50
15900;DHT22;8048;50.644;6.184;2023-05-27T11:13:06;26.30;56.80
15900;DHT22;8048;50.644;6.184;2023-05-27T11:15:32;26.00;55.90
15900;DHT22;8048;50.644;6.184;2023-05-27T11:18:04;25.90;57.30
15900;DHT22;8048;50.644;6.184;2023-05-27T11:20:36;25.90;55.70
15900;DHT22;8048;50.644;6.184;2023-05-27T11:23:02;26.30;56.00
15900;DHT22;8048;50.644;6.184;2023-05-27T11:25:28;26.30;57.20
15900;DHT22;8048;50.644;6.184;2023-05-27T11:27:53;26.70;58.40
15900;DHT22;8048;50.644;6.184;2023-05-27T11:30:24;27.00;58.60
15900;DHT22;8048;50.644;6.184;2023-05-27T11:32:50;27.40;57.00
15900;DHT22;8048;50.644;6.184;2023-05-27T11:35:17;27.50;54.60
15900;DHT22;8048;50.644;6.184;2023-05-27T11:38:01;27.50;53.80
15900;DHT22;8048;50.644;6.184;2023-05-27T11:40:36;26.00;52.10
15900;DHT22;8048;50.644;6.184;2023-05-27T11:43:03;25.70;55.90
15900;DHT22;8048;50.644;6.184;2023-05-27T11:45:29;25.40;55.80
15900;DHT22;8048;50.644;6.184;2023-05-27T11:47:55;25.90;57.80
15900;DHT22;8048;50.644;6.184;2023-05-27T11:50:21;26.50;55.90
15900;DHT22;8048;50.644;6.184;2023-05-27T11:52:51;26.70;56.60
15900;DHT22;8048;50.644;6.184;2023-05-27T11:55:17;27.30;55.30
15900;DHT22;8048;50.644;6.184;2023-05-27T11:57:42;27.40;54.40
15900;DHT22;8048;50.644;6.184;2023-05-27T12:00:08;26.70;56.80
15900;DHT22;8048;50.644;6.184;2023-05-27T12:02:34;27.10;57.30
15900;DHT22;8048;50.644;6.184;2023-05-27T12:05:00;27.70;55.30
15900;DHT22;8048;50.644;6.184;2023-05-27T12:07:26;27.90;55.00
15900;DHT22;8048;50.644;6.184;2023-05-27T12:09:51;28.00;56.00
15900;DHT22;8048;50.644;6.184;2023-05-27T12:12:20;27.80;54.40
15900;DHT22;8048;50.644;6.184;2023-05-27T12:14:45;27.50;55.50
15900;DHT22;8048;50.644;6.184;2023-05-27T12:17:11;27.90;56.40
15900;DHT22;8048;50.644;6.184;2023-05-27T12:19:36;28.20;54.80
15900;DHT22;8048;50.644;6.184;2023-05-27T12:22:02;28.30;56.10
15900;DHT22;8048;50.644;6.184;2023-05-27T12:24:28;28.50;55.90
15900;DHT22;8048;50.644;6.184;2023-05-27T12:26:53;29.00;55.50
15900;DHT22;8048;50.644;6.184;2023-05-27T12:29:21;29.30;54.60
15900;DHT22;8048;50.644;6.184;2023-05-27T12:31:47;29.10;53.70
15900;DHT22;8048;50.644;6.184;2023-05-27T12:34:13;28.50;53.30
15900;DHT22;8048;50.644;6.184;2023-05-27T12:36:38;28.70;54.40
15900;DHT22;8048;50.644;6.184;2023-05-27T12:39:04;28.90;51.50
15900;DHT22;8048;50.644;6.184;2023-05-27T12:41:30;28.80;51.90
15900;DHT22;8048;50.644;6.184;2023-05-27T12:43:55;28.70;53.40
15900;DHT22;8048;50.644;6.184;2023-05-27T12:46:21;28.80;53.30
15900;DHT22;8048;50.644;6.184;2023-05-27T12:48:46;29.20;54.40
15900;DHT22;8048;50.644;6.184;2023-05-27T12:51:12;29.80;54.30
15900;DHT22;8048;50.644;6.184;2023-05-27T12:53:37;30.10;53.20
15900;DHT22;8048;50.644;6.184;2023-05-27T12:56:03;30.00;49.60
15900;DHT22;8048;50.644;6.184;2023-05-27T12:58:29;29.30;51.40
15900;DHT22;8048;50.644;6.184;2023-05-27T13:00:55;29.40;52.00
15900;DHT22;8048;50.644;6.184;2023-05-27T13:03:20;29.80;52.90
15900;DHT22;8048;50.644;6.184;2023-05-27T13:05:46;29.30;50.00
15900;DHT22;8048;50.644;6.184;2023-05-27T13:08:11;28.70;54.10
15900;DHT22;8048;50.644;6.184;2023-05-27T13:10:37;28.60;49.80
15900;DHT22;8048;50.644;6.184;2023-05-27T13:13:03;28.80;53.40
15900;DHT22;8048;50.644;6.184;2023-05-27T13:15:29;29.30;51.20
15900;DHT22;8048;50.644;6.184;2023-05-27T13:17:55;29.30;52.40
15900;DHT22;8048;50.644;6.184;2023-05-27T13:20:23;29.20;50.30
15900;DHT22;8048;50.644;6.184;2023-05-27T13:22:49;29.30;51.00
15900;DHT22;8048;50.644;6.184;2023-05-27T13:25:15;29.50;51.60
15900;DHT22;8048;50.644;6.184;2023-05-27T13:27:42;29.80;52.40
15900;DHT22;8048;50.644;6.184;2023-05-27T13:30:11;30.30;52.30
15900;DHT22;8048;50.644;6.184;2023-05-27T13:32:36;30.60;50.50
15900;DHT22;8048;50.644;6.184;2023-05-27T13:35:02;30.20;50.10
15900;DHT22;8048;50.644;6.184;2023-05-27T13:37:28;29.90;48.30
15900;DHT22;8048;50.644;6.184;2023-05-27T13:39:54;30.10;50.70
15900;DHT22;8048;50.644;6.184;2023-05-27T13:42:19;30.40;50.40
15900;DHT22;8048;50.644;6.184;2023-05-27T13:44:45;31.00;50.90
15900;DHT22;8048;50.644;6.184;2023-05-27T13:47:10;31.20;50.80
15900;DHT22;8048;50.644;6.184;2023-05-27T13:49:36;31.40;50.30
15900;DHT22;8048;50.644;6.184;2023-05-27T13:52:02;31.00;48.20
15900;DHT22;8048;50.644;6.184;2023-05-27T13:54:27;30.50;46.30
15900;DHT22;8048;50.644;6.184;2023-05-27T13:56:53;29.70;49.10
15900;DHT22;8048;50.644;6.184;2023-05-27T13:59:19;29.70;48.30
15900;DHT22;8048;50.644;6.184;2023-05-27T14:01:45;29.30;50.80
15900;DHT22;8048;50.644;6.184;2023-05-27T14:04:11;29.80;50.90
15900;DHT22;8048;50.644;6.184;2023-05-27T14:06:36;30.20;48.70
15900;DHT22;8048;50.644;6.184;2023-05-27T14:09:02;30.30;47.40
15900;DHT22;8048;50.644;6.184;2023-05-27T14:11:28;30.20;48.30
15900;DHT22;8048;50.644;6.184;2023-05-27T14:13:54;30.20;48.30
15900;DHT22;8048;50.644;6.184;2023-05-27T14:16:21;30.50;48.80
15900;DHT22;8048;50.644;6.184;2023-05-27T14:18:47;30.80;50.70
15900;DHT22;8048;50.644;6.184;2023-05-27T14:21:13;30.70;48.10
15900;DHT22;8048;50.644;6.184;2023-05-27T14:23:39;30.80;48.10
15900;DHT22;8048;50.644;6.184;2023-05-27T14:26:04;30.40;47.30
15900;DHT22;8048;50.644;6.184;2023-05-27T14:28:31;30.30;49.40
15900;DHT22;8048;50.644;6.184;2023-05-27T14:30:58;30.20;48.30
15900;DHT22;8048;50.644;6.184;2023-05-27T14:33:23;30.00;48.70
15900;DHT22;8048;50.644;6.184;2023-05-27T14:35:49;30.40;48.70
15900;DHT22;8048;50.644;6.184;2023-05-27T14:38:16;30.60;48.30
15900;DHT22;8048;50.644;6.184;2023-05-27T14:40:42;30.80;47.50
15900;DHT22;8048;50.644;6.184;2023-05-27T14:43:09;30.80;47.80
15900;DHT22;8048;50.644;6.184;2023-05-27T14:45:35;30.80;47.80
15900;DHT22;8048;50.644;6.184;2023-05-27T14:48:00;30.80;45.50
15900;DHT22;8048;50.644;6.184;2023-05-27T14:50:26;30.90;46.90
15900;DHT22;8048;50.644;6.184;2023-05-27T14:52:53;30.90;47.60
15900;DHT22;8048;50.644;6.184;2023-05-27T14:55:19;31.10;47.60
15900;DHT22;8048;50.644;6.184;2023-05-27T14:57:45;31.10;46.80
15900;DHT22;8048;50.644;6.184;2023-05-27T15:00:11;31.20;48.40
15900;DHT22;8048;50.644;6.184;2023-05-27T15:02:37;31.20;46.40
15900;DHT22;8048;50.644;6.184;2023-05-27T15:05:04;31.20;46.30
15900;DHT22;8048;50.644;6.184;2023-05-27T15:07:33;31.20;46.80
15900;DHT22;8048;50.644;6.184;2023-05-27T15:10:00;31.20;46.30
15900;DHT22;8048;50.644;6.184;2023-05-27T15:12:27;31.30;47.20
15900;DHT22;8048;50.644;6.184;2023-05-27T15:14:53;31.20;45.80
15900;DHT22;8048;50.644;6.184;2023-05-27T15:17:18;31.20;46.90
15900;DHT22;8048;50.644;6.184;2023-05-27T15:19:44;31.00;44.80
15900;DHT22;8048;50.644;6.184;2023-05-27T15:22:09;30.60;45.70
15900;DHT22;8048;50.644;6.184;2023-05-27T15:24:35;30.40;47.00
15900;DHT22;8048;50.644;6.184;2023-05-27T15:27:01;30.30;45.80
15900;DHT22;8048;50.644;6.184;2023-05-27T15:29:28;30.30;47.30
15900;DHT22;8048;50.644;6.184;2023-05-27T15:31:53;30.20;45.50
15900;DHT22;8048;50.644;6.184;2023-05-27T15:34:19;30.20;45.90
15900;DHT22;8048;50.644;6.184;2023-05-27T15:36:44;30.30;47.90
15900;DHT22;8048;50.644;6.184;2023-05-27T15:39:10;30.10;44.90
15900;DHT22;8048;50.644;6.184;2023-05-27T15:41:36;29.90;45.80
15900;DHT22;8048;50.644;6.184;2023-05-27T15:44:02;29.80;46.10
15900;DHT22;8048;50.644;6.184;2023-05-27T15:46:27;29.90;47.80
15900;DHT22;8048;50.644;6.184;2023-05-27T15:48:53;30.00;46.30
15900;DHT22;8048;50.644;6.184;2023-05-27T15:51:20;29.70;46.20
15900;DHT22;8048;50.644;6.184;2023-05-27T15:53:45;29.60;45.20
15900;DHT22;8048;50.644;6.184;2023-05-27T15:56:11;29.60;45.40
15900;DHT22;8048;50.644;6.184;2023-05-27T15:58:37;29.60;45.60
15900;DHT22;8048;50.644;6.184;2023-05-27T16:01:02;29.60;47.00